sensor_id;sensor_type;location;lat;lon;timestamp;pressure;altitude;pressure_sealevel;temperature;humidity
62952;BME280;52163;52.212;-1.002;2023-01-26T00:02:02;101902.56;;;2.85;100.00
62952;BME280;52163;52.212;-1.002;2023-01-26T00:04:28;101908.16;;;2.82;100.00
62952;BME280;52163;52.212;-1.002;2023-01-26T00:06:53;101909.06;;;2.77;100.00
62952;BME280;52163;52.212;-1.002;2023-01-26T00:09:19;101905.27;;;2.72;100.00
62952;BME280;52163;52.212;-1.002;2023-01-26T00:11:44;101900.39;;;2.68;100.00
62952;BME280;52163;52.212;-1.002;2023-01-26T00:14:09;101895.52;;;2.64;100.00
62952;BME280;52163;52.212;-1.002;2023-01-26T00:16:35;101898.33;;;2.60;100.00
62952;BME280;52163;52.212;-1.002;2023-01-26T00:19:00;101898.51;;;2.58;100.00
62952;BME280;52163;52.212;-1.002;2023-01-26T00:21:26;101895.20;;;2.55;100.00
62952;BME280;52163;52.212;-1.002;2023-01-26T00:23:52;101890.86;;;2.53;100.00
62952;BME280;52163;52.212;-1.002;2023-01-26T00:26:20;101895.06;;;2.51;100.00
62952;BME280;52163;52.212;-1.002;2023-01-26T00:28:46;101895.95;;;2.49;100.00
62952;BME280;52163;52.212;-1.002;2023-01-26T00:31:14;101890.02;;;2.49;100.00
62952;BME280;52163;52.212;-1.002;2023-01-26T00:33:40;101884.07;;;2.51;100.00
62952;BME280;52163;52.212;-1.002;2023-01-26T00:36:07;101885.28;;;2.53;100.00
62952;BME280;52163;52.212;-1.002;2023-01-26T00:38:32;101888.05;;;2.56;100.00
62952;BME280;52163;52.212;-1.002;2023-01-26T00:40:58;101887.70;;;2.58;100.00
62952;BME280;52163;52.212;-1.002;2023-01-26T00:43:24;101886.12;;;2.58;100.00
62952;BME280;52163;52.212;-1.002;2023-01-26T00:45:49;101887.00;;;2.57;100.00
62952;BME280;52163;52.212;-1.002;2023-01-26T00:48:15;101884.94;;;2.51;99.81
62952;BME280;52163;52.212;-1.002;2023-01-26T00:50:40;101888.29;;;2.44;99.68
62952;BME280;52163;52.212;-1.002;2023-01-26T00:53:06;101890.40;;;2.39;99.55
62952;BME280;52163;52.212;-1.002;2023-01-26T00:55:31;101896.17;;;2.32;99.89
62952;BME280;52163;52.212;-1.002;2023-01-26T00:58:01;101897.61;;;2.27;99.88
62952;BME280;52163;52.212;-1.002;2023-01-26T01:00:27;101893.27;;;2.22;99.93
62952;BME280;52163;52.212;-1.002;2023-01-26T01:02:53;101897.45;;;2.15;99.87
62952;BME280;52163;52.212;-1.002;2023-01-26T01:05:21;101902.36;;;2.09;99.56
62952;BME280;52163;52.212;-1.002;2023-01-26T01:07:47;101901.33;;;2.05;99.86
62952;BME280;52163;52.212;-1.002;2023-01-26T01:10:12;101896.98;;;2.01;99.85
62952;BME280;52163;52.212;-1.002;2023-01-26T01:12:38;101898.73;;;2.00;99.97
62952;BME280;52163;52.212;-1.002;2023-01-26T01:15:04;101892.45;;;2.00;100.00
62952;BME280;52163;52.212;-1.002;2023-01-26T01:17:30;101897.15;;;2.03;100.00
62952;BME280;52163;52.212;-1.002;2023-01-26T01:19:55;101897.49;;;2.06;100.00
62952;BME280;52163;52.212;-1.002;2023-01-26T01:22:21;101900.61;;;2.09;100.00
62952;BME280;52163;52.212;-1.002;2023-01-26T01:24:46;101898.69;;;2.09;100.00
62952;BME280;52163;52.212;-1.002;2023-01-26T01:27:11;101900.62;;;2.09;100.00
62952;BME280;52163;52.212;-1.002;2023-01-26T01:29:37;101902.53;;;2.09;100.00
62952;BME280;52163;52.212;-1.002;2023-01-26T01:32:02;101899.06;;;2.07;100.00
62952;BME280;52163;52.212;-1.002;2023-01-26T01:34:28;101899.76;;;2.05;99.95
62952;BME280;52163;52.212;-1.002;2023-01-26T01:36:53;101897.84;;;2.05;99.99
62952;BME280;52163;52.212;-1.002;2023-01-26T01:39:18;101896.27;;;2.06;100.00
62952;BME280;52163;52.212;-1.002;2023-01-26T01:41:44;101898.02;;;2.07;99.98
62952;BME280;52163;52.212;-1.002;2023-01-26T01:44:21;101893.64;;;2.09;100.00
62952;BME280;52163;52.212;-1.002;2023-01-26T01:46:59;101898.86;;;2.11;100.00
62952;BME280;52163;52.212;-1.002;2023-01-26T01:52:08;101894.33;;;2.18;99.99
62952;BME280;52163;52.212;-1.002;2023-01-26T01:57:22;101903.01;;;2.27;99.69
62952;BME280;52163;52.212;-1.002;2023-01-26T02:00:04;101904.73;;;2.30;99.55
62952;BME280;52163;52.212;-1.002;2023-01-26T02:02:30;101909.09;;;2.32;99.38
62952;BME280;52163;52.212;-1.002;2023-01-26T02:04:59;101901.23;;;2.33;99.18
62952;BME280;52163;52.212;-1.002;2023-01-26T02:07:29;101899.66;;;2.34;98.94
62952;BME280;52163;52.212;-1.002;2023-01-26T02:09:57;101904.36;;;2.35;98.89
62952;BME280;52163;52.212;-1.002;2023-01-26T02:12:42;101906.11;;;2.37;98.59
62952;BME280;52163;52.212;-1.002;2023-01-26T02:15:09;101906.97;;;2.39;98.47
62952;BME280;52163;52.212;-1.002;2023-01-26T02:17:34;101907.84;;;2.41;98.55
62952;BME280;52163;52.212;-1.002;2023-01-26T02:25:18;101904.19;;;2.38;98.37
62952;BME280;52163;52.212;-1.002;2023-01-26T02:27:45;101901.75;;;2.35;98.06
62952;BME280;52163;52.212;-1.002;2023-01-26T02:30:12;101911.89;;;2.31;98.15
62952;BME280;52163;52.212;-1.002;2023-01-26T02:32:38;101914.69;;;2.29;98.18
62952;BME280;52163;52.212;-1.002;2023-01-26T02:35:04;101915.04;;;2.28;98.14
62952;BME280;52163;52.212;-1.002;2023-01-26T02:37:29;101907.36;;;2.28;98.17
62952;BME280;52163;52.212;-1.002;2023-01-26T02:40:04;101906.32;;;2.27;98.16
62952;BME280;52163;52.212;-1.002;2023-01-26T02:42:32;101913.46;;;2.28;98.11
62952;BME280;52163;52.212;-1.002;2023-01-26T02:45:07;101910.34;;;2.26;97.98
62952;BME280;52163;52.212;-1.002;2023-01-26T02:47:32;101910.70;;;2.24;97.79
62952;BME280;52163;52.212;-1.002;2023-01-26T02:49:57;101909.14;;;2.22;98.04
62952;BME280;52163;52.212;-1.002;2023-01-26T02:52:26;101915.24;;;2.22;97.68
62952;BME280;52163;52.212;-1.002;2023-01-26T02:54:53;101916.46;;;2.20;97.88
62952;BME280;52163;52.212;-1.002;2023-01-26T02:57:37;101920.12;;;2.20;97.85
62952;BME280;52163;52.212;-1.002;2023-01-26T03:00:05;101920.29;;;2.22;98.08
62952;BME280;52163;52.212;-1.002;2023-01-26T03:02:31;101924.66;;;2.22;98.10
62952;BME280;52163;52.212;-1.002;2023-01-26T03:04:57;101922.73;;;2.21;97.83
62952;BME280;52163;52.212;-1.002;2023-01-26T03:07:22;101924.14;;;2.19;97.95
62952;BME280;52163;52.212;-1.002;2023-01-26T03:09:48;101932.34;;;2.16;97.86
62952;BME280;52163;52.212;-1.002;2023-01-26T03:12:13;101933.73;;;2.12;97.71
62952;BME280;52163;52.212;-1.002;2023-01-26T03:14:38;101933.91;;;2.10;97.71
62952;BME280;52163;52.212;-1.002;2023-01-26T03:17:04;101929.39;;;2.08;97.86
62952;BME280;52163;52.212;-1.002;2023-01-26T03:19:30;101926.26;;;2.07;97.90
62952;BME280;52163;52.212;-1.002;2023-01-26T03:22:14;101929.56;;;2.07;97.94
62952;BME280;52163;52.212;-1.002;2023-01-26T03:24:58;101947.52;;;2.07;98.40
62952;BME280;52163;52.212;-1.002;2023-01-26T03:27:45;101954.67;;;2.04;97.98
62952;BME280;52163;52.212;-1.002;2023-01-26T03:30:12;101958.70;;;2.00;98.06
62952;BME280;52163;52.212;-1.002;2023-01-26T03:32:39;101955.21;;;1.94;97.86
62952;BME280;52163;52.212;-1.002;2023-01-26T03:35:05;101948.25;;;1.86;97.55
62952;BME280;52163;52.212;-1.002;2023-01-26T03:37:31;101944.42;;;1.78;97.48
62952;BME280;52163;52.212;-1.002;2023-01-26T03:40:04;101946.34;;;1.71;97.66
62952;BME280;52163;52.212;-1.002;2023-01-26T03:42:49;101945.82;;;1.63;97.72
62952;BME280;52163;52.212;-1.002;2023-01-26T03:45:33;101947.21;;;1.55;97.71
62952;BME280;52163;52.212;-1.002;2023-01-26T03:48:18;101947.22;;;1.45;97.57
62952;BME280;52163;52.212;-1.002;2023-01-26T03:51:02;101944.77;;;1.35;97.61
62952;BME280;52163;52.212;-1.002;2023-01-26T03:53:46;101947.38;;;1.25;97.78
62952;BME280;52163;52.212;-1.002;2023-01-26T03:56:30;101943.87;;;1.14;97.83
62952;BME280;52163;52.212;-1.002;2023-01-26T03:59:00;101944.20;;;1.07;98.27
62952;BME280;52163;52.212;-1.002;2023-01-26T04:01:38;101942.28;;;1.01;98.69
62952;BME280;52163;52.212;-1.002;2023-01-26T04:04:06;101941.59;;;0.99;99.28
62952;BME280;52163;52.212;-1.002;2023-01-26T04:06:51;101949.58;;;1.00;99.66
62952;BME280;52163;52.212;-1.002;2023-01-26T04:09:37;101951.84;;;0.97;99.53
62952;BME280;52163;52.212;-1.002;2023-01-26T04:12:06;101953.40;;;0.96;99.96
62952;BME280;52163;52.212;-1.002;2023-01-26T04:14:34;101951.48;;;0.93;99.95
62952;BME280;52163;52.212;-1.002;2023-01-26T04:17:18;101952.34;;;0.90;99.99
62952;BME280;52163;52.212;-1.002;2023-01-26T04:20:04;101954.59;;;0.86;99.97
62952;BME280;52163;52.212;-1.002;2023-01-26T04:22:48;101954.59;;;0.83;100.00
62952;BME280;52163;52.212;-1.002;2023-01-26T04:25:17;101959.45;;;0.82;100.00
62952;BME280;52163;52.212;-1.002;2023-01-26T04:27:43;101966.93;;;0.83;100.00
62952;BME280;52163;52.212;-1.002;2023-01-26T04:30:13;101975.12;;;0.83;100.00
62952;BME280;52163;52.212;-1.002;2023-01-26T04:32:39;101973.91;;;0.85;100.00
62952;BME280;52163;52.212;-1.002;2023-01-26T04:35:07;101974.08;;;0.85;100.00
62952;BME280;52163;52.212;-1.002;2023-01-26T04:37:32;101968.33;;;0.81;100.00
62952;BME280;52163;52.212;-1.002;2023-01-26T04:39:58;101966.06;;;0.78;100.00
62952;BME280;52163;52.212;-1.002;2023-01-26T04:42:24;101965.71;;;0.75;100.00
62952;BME280;52163;52.212;-1.002;2023-01-26T04:44:50;101968.13;;;0.73;100.00
62952;BME280;52163;52.212;-1.002;2023-01-26T04:47:16;101968.46;;;0.72;100.00
62952;BME280;52163;52.212;-1.002;2023-01-26T04:49:42;101968.13;;;0.75;100.00
62952;BME280;52163;52.212;-1.002;2023-01-26T04:52:07;101977.89;;;0.80;100.00
62952;BME280;52163;52.212;-1.002;2023-01-26T04:54:32;101974.60;;;0.85;100.00
62952;BME280;52163;52.212;-1.002;2023-01-26T04:56:58;101976.54;;;0.90;100.00
62952;BME280;52163;52.212;-1.002;2023-01-26T04:59:23;101977.95;;;0.98;100.00
62952;BME280;52163;52.212;-1.002;2023-01-26T05:01:48;101979.89;;;1.06;100.00
62952;BME280;52163;52.212;-1.002;2023-01-26T05:04:14;101981.99;;;1.16;100.00
62952;BME280;52163;52.212;-1.002;2023-01-26T05:06:39;101983.77;;;1.26;100.00
62952;BME280;52163;52.212;-1.002;2023-01-26T05:09:06;101982.56;;;1.37;100.00
62952;BME280;52163;52.212;-1.002;2023-01-26T05:11:32;101981.86;;;1.48;100.00
62952;BME280;52163;52.212;-1.002;2023-01-26T05:13:57;101974.73;;;1.58;100.00
62952;BME280;52163;52.212;-1.002;2023-01-26T05:16:23;101968.48;;;1.67;100.00
62952;BME280;52163;52.212;-1.002;2023-01-26T05:18:48;101967.44;;;1.75;100.00
62952;BME280;52163;52.212;-1.002;2023-01-26T05:21:14;101970.91;;;1.82;100.00
62952;BME280;52163;52.212;-1.002;2023-01-26T05:23:39;101969.33;;;1.88;100.00
62952;BME280;52163;52.212;-1.002;2023-01-26T05:26:05;101969.68;;;1.96;100.00
62952;BME280;52163;52.212;-1.002;2023-01-26T05:28:32;101972.27;;;2.03;100.00
62952;BME280;52163;52.212;-1.002;2023-01-26T05:30:58;101979.06;;;2.10;100.00
62952;BME280;52163;52.212;-1.002;2023-01-26T05:33:24;101978.36;;;2.18;100.00
62952;BME280;52163;52.212;-1.002;2023-01-26T05:35:51;101974.52;;;2.25;100.00
62952;BME280;52163;52.212;-1.002;2023-01-26T05:38:17;101975.71;;;2.31;100.00
62952;BME280;52163;52.212;-1.002;2023-01-26T05:40:43;101978.48;;;2.37;100.00
62952;BME280;52163;52.212;-1.002;2023-01-26T05:43:09;101984.23;;;2.41;100.00
62952;BME280;52163;52.212;-1.002;2023-01-26T05:45:35;101986.48;;;2.46;99.94
62952;BME280;52163;52.212;-1.002;2023-01-26T05:48:01;101985.08;;;2.50;99.80
62952;BME280;52163;52.212;-1.002;2023-01-26T05:50:26;101984.20;;;2.55;99.65
62952;BME280;52163;52.212;-1.002;2023-01-26T05:52:52;101981.91;;;2.60;99.43
62952;BME280;52163;52.212;-1.002;2023-01-26T05:55:18;101978.05;;;2.65;99.23
62952;BME280;52163;52.212;-1.002;2023-01-26T05:57:44;101980.66;;;2.70;99.12
62952;BME280;52163;52.212;-1.002;2023-01-26T06:00:11;101982.56;;;2.73;99.06
62952;BME280;52163;52.212;-1.002;2023-01-26T06:02:37;101983.24;;;2.75;98.68
62952;BME280;52163;52.212;-1.002;2023-01-26T06:05:04;101986.91;;;2.77;98.51
62952;BME280;52163;52.212;-1.002;2023-01-26T06:07:30;101990.20;;;2.80;98.50
62952;BME280;52163;52.212;-1.002;2023-01-26T06:09:56;101991.93;;;2.83;98.24
62952;BME280;52163;52.212;-1.002;2023-01-26T06:12:21;101995.23;;;2.87;98.34
62952;BME280;52163;52.212;-1.002;2023-01-26T06:14:47;101993.29;;;2.92;98.19
62952;BME280;52163;52.212;-1.002;2023-01-26T06:17:14;101995.55;;;2.95;97.91
62952;BME280;52163;52.212;-1.002;2023-01-26T06:19:40;101997.99;;;2.96;97.53
62952;BME280;52163;52.212;-1.002;2023-01-26T06:22:10;101995.20;;;2.95;97.18
62952;BME280;52163;52.212;-1.002;2023-01-26T06:24:36;101996.60;;;2.93;97.03
62952;BME280;52163;52.212;-1.002;2023-01-26T06:27:02;102002.21;;;2.91;96.88
62952;BME280;52163;52.212;-1.002;2023-01-26T06:29:28;102003.96;;;2.90;97.04
62952;BME280;52163;52.212;-1.002;2023-01-26T06:31:53;102014.61;;;2.90;97.00
62952;BME280;52163;52.212;-1.002;2023-01-26T06:34:19;102014.25;;;2.90;96.85
62952;BME280;52163;52.212;-1.002;2023-01-26T06:36:44;102016.86;;;2.89;97.02
62952;BME280;52163;52.212;-1.002;2023-01-26T06:39:11;102019.31;;;2.89;96.87
62952;BME280;52163;52.212;-1.002;2023-01-26T06:41:37;102017.92;;;2.87;96.72
62952;BME280;52163;52.212;-1.002;2023-01-26T06:44:02;102015.31;;;2.85;96.72
62952;BME280;52163;52.212;-1.002;2023-01-26T06:46:28;102018.47;;;2.83;96.82
62952;BME280;52163;52.212;-1.002;2023-01-26T06:48:53;102020.92;;;2.82;96.73
62952;BME280;52163;52.212;-1.002;2023-01-26T06:53:55;102024.76;;;2.82;96.82
62952;BME280;52163;52.212;-1.002;2023-01-26T06:56:21;102030.35;;;2.79;96.43
62952;BME280;52163;52.212;-1.002;2023-01-26T06:58:47;102027.56;;;2.78;96.72
62952;BME280;52163;52.212;-1.002;2023-01-26T07:01:21;102027.92;;;2.76;96.73
62952;BME280;52163;52.212;-1.002;2023-01-26T07:03:48;102027.41;;;2.75;96.76
62952;BME280;52163;52.212;-1.002;2023-01-26T07:06:13;102033.34;;;2.75;96.32
62952;BME280;52163;52.212;-1.002;2023-01-26T07:08:39;102038.05;;;2.75;96.62
62952;BME280;52163;52.212;-1.002;2023-01-26T07:11:05;102044.67;;;2.76;96.37
62952;BME280;52163;52.212;-1.002;2023-01-26T07:13:31;102047.46;;;2.78;96.62
62952;BME280;52163;52.212;-1.002;2023-01-26T07:16:01;102048.67;;;2.79;96.73
62952;BME280;52163;52.212;-1.002;2023-01-26T07:18:27;102051.11;;;2.80;96.72
62952;BME280;52163;52.212;-1.002;2023-01-26T07:20:52;102051.28;;;2.81;96.70
62952;BME280;52163;52.212;-1.002;2023-01-26T07:23:18;102054.25;;;2.82;96.78
62952;BME280;52163;52.212;-1.002;2023-01-26T07:25:43;102048.48;;;2.83;96.80
62952;BME280;52163;52.212;-1.002;2023-01-26T07:28:08;102044.30;;;2.84;97.24
62952;BME280;52163;52.212;-1.002;2023-01-26T07:30:35;102043.93;;;2.85;97.88
62952;BME280;52163;52.212;-1.002;2023-01-26T07:33:01;102042.70;;;2.88;98.35
62952;BME280;52163;52.212;-1.002;2023-01-26T07:35:26;102047.60;;;2.90;98.87
62952;BME280;52163;52.212;-1.002;2023-01-26T07:37:54;102043.56;;;2.93;99.18
62952;BME280;52163;52.212;-1.002;2023-01-26T07:40:19;102043.56;;;2.94;99.09
62952;BME280;52163;52.212;-1.002;2023-01-26T07:42:45;102046.70;;;2.96;99.24
62952;BME280;52163;52.212;-1.002;2023-01-26T07:45:11;102043.90;;;2.97;99.42
62952;BME280;52163;52.212;-1.002;2023-01-26T07:47:36;102045.83;;;2.96;99.22
62952;BME280;52163;52.212;-1.002;2023-01-26T07:50:03;102049.67;;;2.95;99.29
62952;BME280;52163;52.212;-1.002;2023-01-26T07:52:30;102052.12;;;2.94;99.52
62952;BME280;52163;52.212;-1.002;2023-01-26T07:54:55;102057.34;;;2.96;99.71
62952;BME280;52163;52.212;-1.002;2023-01-26T07:57:20;102051.94;;;2.96;99.77
62952;BME280;52163;52.212;-1.002;2023-01-26T07:59:46;102047.91;;;2.98;99.95
62952;BME280;52163;52.212;-1.002;2023-01-26T08:02:11;102045.98;;;2.99;99.87
62952;BME280;52163;52.212;-1.002;2023-01-26T08:04:37;102048.25;;;3.00;99.94
62952;BME280;52163;52.212;-1.002;2023-01-26T08:07:02;102050.33;;;3.01;99.92
62952;BME280;52163;52.212;-1.002;2023-01-26T08:09:27;102052.76;;;3.05;100.00
62952;BME280;52163;52.212;-1.002;2023-01-26T08:11:55;102057.97;;;3.11;100.00
62952;BME280;52163;52.212;-1.002;2023-01-26T08:14:21;102065.82;;;3.16;100.00
62952;BME280;52163;52.212;-1.002;2023-01-26T08:16:46;102069.61;;;3.25;100.00
62952;BME280;52163;52.212;-1.002;2023-01-26T08:19:12;102069.23;;;3.31;100.00
62952;BME280;52163;52.212;-1.002;2023-01-26T08:21:37;102064.13;;;3.37;100.00
62952;BME280;52163;52.212;-1.002;2023-01-26T08:24:03;102059.22;;;3.42;100.00
62952;BME280;52163;52.212;-1.002;2023-01-26T08:26:28;102058.14;;;3.47;100.00
62952;BME280;52163;52.212;-1.002;2023-01-26T08:28:54;102058.45;;;3.53;100.00
62952;BME280;52163;52.212;-1.002;2023-01-26T08:31:20;102063.84;;;3.58;100.00
62952;BME280;52163;52.212;-1.002;2023-01-26T08:33:47;102062.40;;;3.65;100.00
62952;BME280;52163;52.212;-1.002;2023-01-26T08:36:15;102067.43;;;3.70;100.00
62952;BME280;52163;52.212;-1.002;2023-01-26T08:38:42;102071.77;;;3.75;100.00
62952;BME280;52163;52.212;-1.002;2023-01-26T08:41:08;102070.34;;;3.79;100.00
62952;BME280;52163;52.212;-1.002;2023-01-26T08:43:34;102072.41;;;3.83;100.00
62952;BME280;52163;52.212;-1.002;2023-01-26T08:45:59;102070.81;;;3.87;100.00
62952;BME280;52163;52.212;-1.002;2023-01-26T08:48:25;102072.00;;;3.91;100.00
62952;BME280;52163;52.212;-1.002;2023-01-26T08:50:55;102068.83;;;3.95;100.00
62952;BME280;52163;52.212;-1.002;2023-01-26T08:53:22;102074.92;;;3.97;99.99
62952;BME280;52163;52.212;-1.002;2023-01-26T08:55:47;102077.73;;;3.98;99.87
62952;BME280;52163;52.212;-1.002;2023-01-26T08:58:13;102073.71;;;3.97;99.59
62952;BME280;52163;52.212;-1.002;2023-01-26T09:00:38;102082.80;;;3.98;99.35
62952;BME280;52163;52.212;-1.002;2023-01-26T09:03:04;102088.55;;;3.98;99.07
62952;BME280;52163;52.212;-1.002;2023-01-26T09:05:31;102085.25;;;3.97;99.35
62952;BME280;52163;52.212;-1.002;2023-01-26T09:07:57;102090.33;;;3.95;99.09
62952;BME280;52163;52.212;-1.002;2023-01-26T09:10:22;102096.29;;;3.94;99.04
62952;BME280;52163;52.212;-1.002;2023-01-26T09:12:48;102096.64;;;3.93;99.29
62952;BME280;52163;52.212;-1.002;2023-01-26T09:15:14;102098.73;;;3.94;98.90
62952;BME280;52163;52.212;-1.002;2023-01-26T09:17:39;102097.51;;;3.94;98.75
62952;BME280;52163;52.212;-1.002;2023-01-26T09:20:08;102093.46;;;3.97;99.11
62952;BME280;52163;52.212;-1.002;2023-01-26T09:22:34;102091.86;;;4.00;98.84
62952;BME280;52163;52.212;-1.002;2023-01-26T09:24:59;102092.52;;;4.04;99.06
62952;BME280;52163;52.212;-1.002;2023-01-26T09:27:25;102090.23;;;4.08;98.97
62952;BME280;52163;52.212;-1.002;2023-01-26T09:29:50;102090.90;;;4.12;99.00
62952;BME280;52163;52.212;-1.002;2023-01-26T09:32:16;102081.77;;;4.17;99.09
62952;BME280;52163;52.212;-1.002;2023-01-26T09:34:42;102082.76;;;4.23;99.08
62952;BME280;52163;52.212;-1.002;2023-01-26T09:37:07;102086.04;;;4.28;98.97
62952;BME280;52163;52.212;-1.002;2023-01-26T09:39:33;102095.44;;;4.33;99.12
62952;BME280;52163;52.212;-1.002;2023-01-26T09:44:32;102094.14;;;4.42;99.10
62952;BME280;52163;52.212;-1.002;2023-01-26T09:47:13;102097.59;;;4.47;99.11
62952;BME280;52163;52.212;-1.002;2023-01-26T09:50:13;102103.13;;;4.53;98.90
62952;BME280;52163;52.212;-1.002;2023-01-26T09:52:55;102108.52;;;4.58;98.81
62952;BME280;52163;52.212;-1.002;2023-01-26T09:55:23;102105.85;;;4.62;98.57
62952;BME280;52163;52.212;-1.002;2023-01-26T10:03:33;102096.45;;;4.72;97.77
62952;BME280;52163;52.212;-1.002;2023-01-26T10:08:29;102100.73;;;4.81;97.31
62952;BME280;52163;52.212;-1.002;2023-01-26T10:11:05;102104.92;;;4.84;97.21
62952;BME280;52163;52.212;-1.002;2023-01-26T10:13:33;102107.48;;;4.89;97.61
62952;BME280;52163;52.212;-1.002;2023-01-26T10:16:10;102104.65;;;4.92;97.80
62952;BME280;52163;52.212;-1.002;2023-01-26T10:18:45;102105.02;;;4.90;97.82
62952;BME280;52163;52.212;-1.002;2023-01-26T10:21:14;102106.80;;;4.88;97.92
62952;BME280;52163;52.212;-1.002;2023-01-26T10:23:46;102107.36;;;4.85;97.84
62952;BME280;52163;52.212;-1.002;2023-01-26T10:26:19;102117.67;;;4.87;97.92
62952;BME280;52163;52.212;-1.002;2023-01-26T10:28:47;102121.57;;;4.98;98.23
62952;BME280;52163;52.212;-1.002;2023-01-26T10:31:21;102119.15;;;5.11;98.18
62952;BME280;52163;52.212;-1.002;2023-01-26T10:36:44;102124.34;;;5.45;97.85
62952;BME280;52163;52.212;-1.002;2023-01-26T10:39:13;102127.02;;;5.55;97.45
62952;BME280;52163;52.212;-1.002;2023-01-26T10:41:39;102127.98;;;5.61;97.48
62952;BME280;52163;52.212;-1.002;2023-01-26T10:49:30;102124.66;;;5.97;96.79
62952;BME280;52163;52.212;-1.002;2023-01-26T10:52:16;102123.79;;;6.10;96.23
62952;BME280;52163;52.212;-1.002;2023-01-26T10:54:43;102126.70;;;6.15;96.07
62952;BME280;52163;52.212;-1.002;2023-01-26T10:57:28;102129.99;;;6.17;95.69
62952;BME280;52163;52.212;-1.002;2023-01-26T10:59:56;102123.66;;;6.18;95.44
62952;BME280;52163;52.212;-1.002;2023-01-26T11:02:28;102125.60;;;6.17;95.31
62952;BME280;52163;52.212;-1.002;2023-01-26T11:10:23;102138.60;;;6.27;95.17
62952;BME280;52163;52.212;-1.002;2023-01-26T11:12:50;102137.80;;;6.34;94.99
62952;BME280;52163;52.212;-1.002;2023-01-26T11:15:20;102135.67;;;6.34;94.61
62952;BME280;52163;52.212;-1.002;2023-01-26T11:20:56;102140.52;;;6.39;94.17
62952;BME280;52163;52.212;-1.002;2023-01-26T11:31:36;102118.06;;;6.68;93.40
62952;BME280;52163;52.212;-1.002;2023-01-26T11:50:44;102109.97;;;6.96;91.13
62952;BME280;52163;52.212;-1.002;2023-01-26T11:55:53;102106.52;;;7.03;91.03
62952;BME280;52163;52.212;-1.002;2023-01-26T11:59:08;102104.79;;;7.10;91.21
62952;BME280;52163;52.212;-1.002;2023-01-26T12:04:19;102112.26;;;7.22;90.48
62952;BME280;52163;52.212;-1.002;2023-01-26T12:07:00;102105.92;;;7.23;90.13
62952;BME280;52163;52.212;-1.002;2023-01-26T12:09:38;102106.02;;;7.27;90.24
62952;BME280;52163;52.212;-1.002;2023-01-26T12:15:20;102106.05;;;7.34;89.38
62952;BME280;52163;52.212;-1.002;2023-01-26T12:20:50;102104.26;;;7.36;89.40
62952;BME280;52163;52.212;-1.002;2023-01-26T12:26:13;102101.71;;;7.32;89.44
62952;BME280;52163;52.212;-1.002;2023-01-26T12:28:53;102102.13;;;7.36;89.35
62952;BME280;52163;52.212;-1.002;2023-01-26T12:31:37;102101.33;;;7.41;89.18
62952;BME280;52163;52.212;-1.002;2023-01-26T12:34:08;102096.70;;;7.43;89.21
62952;BME280;52163;52.212;-1.002;2023-01-26T12:39:30;102102.44;;;7.47;89.25
62952;BME280;52163;52.212;-1.002;2023-01-26T12:42:05;102102.09;;;7.47;89.19
62952;BME280;52163;52.212;-1.002;2023-01-26T12:44:38;102097.56;;;7.43;89.34
62952;BME280;52163;52.212;-1.002;2023-01-26T12:47:33;102099.02;;;7.42;89.22
62952;BME280;52163;52.212;-1.002;2023-01-26T12:50:09;102101.45;;;7.43;89.14
62952;BME280;52163;52.212;-1.002;2023-01-26T12:52:42;102092.42;;;7.46;89.25
62952;BME280;52163;52.212;-1.002;2023-01-26T12:57:46;102077.52;;;7.53;89.27
62952;BME280;52163;52.212;-1.002;2023-01-26T13:02:51;102075.39;;;7.61;88.80
62952;BME280;52163;52.212;-1.002;2023-01-26T13:05:25;102080.40;;;7.65;88.61
62952;BME280;52163;52.212;-1.002;2023-01-26T13:07:51;102078.89;;;7.69;88.19
62952;BME280;52163;52.212;-1.002;2023-01-26T13:13:26;102085.58;;;7.68;87.86
62952;BME280;52163;52.212;-1.002;2023-01-26T13:18:54;102095.95;;;7.45;88.54
62952;BME280;52163;52.212;-1.002;2023-01-26T13:21:26;102092.77;;;7.38;88.72
62952;BME280;52163;52.212;-1.002;2023-01-26T13:23:53;102084.55;;;7.36;89.19
62952;BME280;52163;52.212;-1.002;2023-01-26T13:26:23;102080.52;;;7.36;88.85
62952;BME280;52163;52.212;-1.002;2023-01-26T13:28:50;102073.98;;;7.37;88.91
62952;BME280;52163;52.212;-1.002;2023-01-26T13:31:32;102069.91;;;7.38;88.97
62952;BME280;52163;52.212;-1.002;2023-01-26T13:34:01;102071.46;;;7.39;89.12
62952;BME280;52163;52.212;-1.002;2023-01-26T13:36:33;102077.73;;;7.42;88.74
62952;BME280;52163;52.212;-1.002;2023-01-26T13:39:03;102076.90;;;7.48;88.86
62952;BME280;52163;52.212;-1.002;2023-01-26T13:41:30;102084.02;;;7.53;88.72
62952;BME280;52163;52.212;-1.002;2023-01-26T13:44:17;102086.90;;;7.50;88.61
62952;BME280;52163;52.212;-1.002;2023-01-26T13:47:08;102088.46;;;7.42;88.79
62952;BME280;52163;52.212;-1.002;2023-01-26T13:49:41;102090.70;;;7.29;88.89
62952;BME280;52163;52.212;-1.002;2023-01-26T13:52:21;102089.94;;;7.14;89.20
62952;BME280;52163;52.212;-1.002;2023-01-26T13:54:51;102079.52;;;6.99;89.53
62952;BME280;52163;52.212;-1.002;2023-01-26T13:57:22;102082.36;;;6.88;90.26
62952;BME280;52163;52.212;-1.002;2023-01-26T13:59:51;102082.34;;;6.81;90.72
62952;BME280;52163;52.212;-1.002;2023-01-26T14:02:35;102081.91;;;6.77;90.95
62952;BME280;52163;52.212;-1.002;2023-01-26T14:05:03;102079.84;;;6.74;90.96
62952;BME280;52163;52.212;-1.002;2023-01-26T14:10:00;102077.83;;;6.78;91.24
62952;BME280;52163;52.212;-1.002;2023-01-26T14:12:30;102082.46;;;6.84;91.25
62952;BME280;52163;52.212;-1.002;2023-01-26T14:15:05;102088.13;;;6.90;91.45
62952;BME280;52163;52.212;-1.002;2023-01-26T14:17:35;102086.04;;;6.98;91.48
62952;BME280;52163;52.212;-1.002;2023-01-26T14:20:17;102086.48;;;7.03;91.32
62952;BME280;52163;52.212;-1.002;2023-01-26T14:22:45;102085.19;;;7.06;91.25
62952;BME280;52163;52.212;-1.002;2023-01-26T14:25:18;102076.96;;;7.05;91.07
62952;BME280;52163;52.212;-1.002;2023-01-26T14:27:44;102080.41;;;6.99;91.09
62952;BME280;52163;52.212;-1.002;2023-01-26T14:30:31;102080.86;;;6.94;91.47
62952;BME280;52163;52.212;-1.002;2023-01-26T14:33:12;102091.55;;;6.87;91.37
62952;BME280;52163;52.212;-1.002;2023-01-26T14:35:39;102089.92;;;6.79;91.42